createdAt,value
2023-05-05T00:01:33.198Z,98837.30
2023-05-05T00:04:05.780Z,98837.59
2023-05-05T00:06:38.050Z,98836.75
2023-05-05T00:09:10.197Z,98835.94
2023-05-05T00:11:42.383Z,98838.26
2023-05-05T00:14:14.541Z,98836.02
2023-05-05T00:16:47.269Z,98831.05
2023-05-05T00:19:19.613Z,98828.27
2023-05-05T00:21:52.221Z,98829.87
2023-05-05T00:24:24.746Z,98825.34
2023-05-05T00:26:57.168Z,98818.70
2023-05-05T00:29:29.428Z,98816.98
2023-05-05T00:32:02.122Z,98813.25
2023-05-05T00:34:34.368Z,98813.50
2023-05-05T00:37:06.513Z,98809.88
2023-05-05T00:39:38.691Z,98809.41
2023-05-05T00:42:11.129Z,98812.20
2023-05-05T00:44:44.991Z,98809.09
2023-05-05T00:47:17.947Z,98805.98
2023-05-05T00:49:50.241Z,98805.02
2023-05-05T00:52:22.642Z,98801.88
2023-05-05T00:54:54.868Z,98804.02
2023-05-05T00:57:28.636Z,98800.77
2023-05-05T01:00:02.493Z,98804.33
2023-05-05T01:02:34.765Z,98803.61
2023-05-05T01:05:07.937Z,98803.84
2023-05-05T01:07:54.061Z,98804.16
2023-05-05T01:10:38.039Z,98803.02
2023-05-05T01:13:25.036Z,98805.05
2023-05-05T01:16:09.216Z,98810.35
2023-05-05T01:18:48.958Z,98812.25
2023-05-05T01:21:27.585Z,98811.64
2023-05-05T01:24:29.752Z,98807.69
2023-05-05T01:27:21.285Z,98820.02
2023-05-05T01:30:09.950Z,98821.33
2023-05-05T01:32:48.987Z,98813.63
2023-05-05T01:35:28.461Z,98805.50
2023-05-05T01:38:07.336Z,98801.65
2023-05-05T01:40:43.753Z,98805.66
2023-05-05T01:43:17.994Z,98803.80
2023-05-05T01:45:50.968Z,98804.50
2023-05-05T01:48:24.544Z,98805.27
2023-05-05T01:50:57.076Z,98809.61
2023-05-05T01:53:30.532Z,98808.20
2023-05-05T01:56:05.325Z,98807.92
2023-05-05T01:58:38.774Z,98809.41
2023-05-05T02:01:12.483Z,98810.30
2023-05-05T02:03:48.212Z,98811.54
2023-05-05T02:06:22.072Z,98809.04
2023-05-05T02:08:58.516Z,98814.41
2023-05-05T02:11:31.186Z,98811.56
2023-05-05T02:14:04.313Z,98810.42
2023-05-05T02:16:37.460Z,98809.04
2023-05-05T02:19:12.315Z,98812.01
2023-05-05T02:21:44.920Z,98814.27
2023-05-05T02:24:17.394Z,98817.91
2023-05-05T02:30:03.162Z,98809.08
2023-05-05T02:32:38.845Z,98813.56
2023-05-05T02:35:21.504Z,98813.26
2023-05-05T02:38:02.705Z,98813.82
2023-05-05T02:40:39.422Z,98806.22
2023-05-05T02:43:16.806Z,98804.56
2023-05-05T02:45:49.228Z,98802.84
2023-05-05T02:48:22.296Z,98799.64
2023-05-05T02:50:55.057Z,98805.38
2023-05-05T02:53:35.678Z,98800.88
2023-05-05T02:56:25.157Z,98802.69
2023-05-05T02:59:05.796Z,98803.27
2023-05-05T03:01:49.072Z,98803.86
2023-05-05T03:04:29.020Z,98802.64
2023-05-05T03:07:11.894Z,98803.95
2023-05-05T03:09:48.104Z,98796.33
2023-05-05T03:12:26.963Z,98796.02
2023-05-05T03:15:14.617Z,98792.50
2023-05-05T03:17:47.546Z,98787.43
2023-05-05T03:20:21.651Z,98784.33
2023-05-05T03:22:54.919Z,98787.27
2023-05-05T03:25:44.898Z,98785.98
2023-05-05T03:28:21.939Z,98785.11
2023-05-05T03:31:00.826Z,98782.89
2023-05-05T03:33:37.347Z,98782.29
2023-05-05T03:36:10.328Z,98785.92
2023-05-05T03:38:43.115Z,98785.00
2023-05-05T03:41:15.524Z,98789.27
2023-05-05T03:43:47.780Z,98790.67
2023-05-05T03:46:20.134Z,98790.85
2023-05-05T03:48:53.014Z,98795.23
2023-05-05T03:51:25.669Z,98795.85
2023-05-05T03:53:58.122Z,98793.58
2023-05-05T03:56:30.728Z,98792.95
2023-05-05T03:59:03.229Z,98792.95
2023-05-05T04:01:35.689Z,98789.77
2023-05-05T04:04:09.616Z,98787.48
2023-05-05T04:06:41.858Z,98787.30
2023-05-05T04:09:14.670Z,98792.48
2023-05-05T04:11:49.170Z,98799.08
2023-05-05T04:14:21.666Z,98797.90
2023-05-05T04:16:53.861Z,98803.52
2023-05-05T04:19:26.444Z,98802.42
2023-05-05T04:21:58.791Z,98797.52
2023-05-05T04:24:32.648Z,98798.23
2023-05-05T04:27:05.252Z,98800.61
2023-05-05T04:29:37.439Z,98802.17
2023-05-05T04:32:09.807Z,98805.36
2023-05-05T04:34:42.363Z,98804.67
2023-05-05T04:37:14.925Z,98808.63
2023-05-05T04:39:47.271Z,98808.58
2023-05-05T04:42:22.217Z,98812.14
2023-05-05T04:44:55.295Z,98812.96
2023-05-05T04:47:28.311Z,98816.38
2023-05-05T04:50:01.071Z,98820.65
2023-05-05T04:52:34.338Z,98817.20
2023-05-05T04:55:07.520Z,98819.76
2023-05-05T04:57:39.622Z,98818.48
2023-05-05T05:00:13.629Z,98817.40
2023-05-05T05:02:45.899Z,98818.04
2023-05-05T05:05:18.390Z,98819.61
2023-05-05T05:07:51.113Z,98815.66
2023-05-05T05:10:23.702Z,98812.83
2023-05-05T05:12:55.907Z,98808.54
2023-05-05T05:15:28.761Z,98814.04
2023-05-05T05:18:05.267Z,98814.61
2023-05-05T05:20:38.381Z,98813.23
2023-05-05T05:23:10.884Z,98817.18
2023-05-05T05:25:47.116Z,98821.19
2023-05-05T05:28:20.161Z,98819.80
2023-05-05T05:30:56.338Z,98824.35
2023-05-05T05:33:28.951Z,98821.91
2023-05-05T05:36:01.545Z,98823.34
2023-05-05T05:38:34.074Z,98818.38
2023-05-05T05:41:09.613Z,98819.80
2023-05-05T05:43:42.688Z,98820.56
2023-05-05T05:46:14.969Z,98818.27
2023-05-05T05:48:48.350Z,98815.21
2023-05-05T05:51:20.539Z,98811.33
2023-05-05T05:57:00.301Z,98810.56
2023-05-05T05:59:33.164Z,98806.19
2023-05-05T06:02:08.108Z,98811.33
2023-05-05T06:04:40.553Z,98813.08
2023-05-05T06:07:13.188Z,98806.94
2023-05-05T06:12:52.931Z,98805.06
2023-05-05T06:15:25.957Z,98802.97
2023-05-05T06:17:58.583Z,98800.70
2023-05-05T06:20:31.401Z,98787.98
2023-05-05T06:23:03.617Z,98779.94
2023-05-05T06:25:38.093Z,98769.56
2023-05-05T06:28:10.243Z,98765.01
2023-05-05T06:30:42.308Z,98761.95
2023-05-05T06:33:14.467Z,98759.23
2023-05-05T06:35:47.871Z,98753.49
2023-05-05T06:38:20.381Z,98765.64
2023-05-05T06:40:52.515Z,98763.39
2023-05-05T06:43:24.722Z,98763.66
2023-05-05T06:46:00.320Z,98751.69
2023-05-05T06:48:32.460Z,98759.05
2023-05-05T06:51:04.706Z,98753.52
2023-05-05T06:53:36.890Z,98743.58
2023-05-05T06:56:09.946Z,98734.16
2023-05-05T06:58:42.558Z,98724.27
2023-05-05T07:01:15.012Z,98727.78
2023-05-05T07:03:47.580Z,98720.59
2023-05-05T07:06:19.692Z,98707.30
2023-05-05T07:08:51.878Z,98702.98
2023-05-05T07:11:24.129Z,98705.48
2023-05-05T07:13:56.729Z,98690.27
2023-05-05T07:16:28.835Z,98683.90
2023-05-05T07:19:00.962Z,98673.29
2023-05-05T07:21:35.432Z,98658.59
2023-05-05T07:24:08.556Z,98656.54
2023-05-05T07:26:40.690Z,98653.19
2023-05-05T07:29:15.866Z,98654.02
2023-05-05T07:31:48.034Z,98640.57
2023-05-05T07:34:20.318Z,98636.61
2023-05-05T07:36:52.620Z,98614.46
2023-05-05T07:39:24.753Z,98623.14
2023-05-05T07:41:56.936Z,98627.42
2023-05-05T07:44:29.226Z,98604.92
2023-05-05T07:47:01.304Z,98601.31
2023-05-05T07:49:33.456Z,98569.07
2023-05-05T07:52:05.962Z,98563.97
2023-05-05T07:54:38.097Z,98580.70
2023-05-05T07:57:10.295Z,98574.60
2023-05-05T07:59:43.839Z,98578.23
2023-05-05T08:02:17.274Z,98544.73
2023-05-05T08:04:50.218Z,98545.38
2023-05-05T08:10:30.619Z,98514.06
2023-05-05T08:13:03.114Z,98521.83
2023-05-05T08:15:35.365Z,98514.71
2023-05-05T08:18:11.166Z,98499.81
2023-05-05T08:20:43.501Z,98472.75
2023-05-05T08:23:15.609Z,98493.29
2023-05-05T08:25:50.927Z,98492.76
2023-05-05T08:28:26.605Z,98492.14
2023-05-05T08:30:59.419Z,98484.79
2023-05-05T08:33:32.039Z,98496.93
2023-05-05T08:36:04.564Z,98491.98
2023-05-05T08:38:37.069Z,98482.66
2023-05-05T08:41:14.309Z,98466.00
2023-05-05T08:43:49.647Z,98471.93
2023-05-05T08:46:23.167Z,98476.59
2023-05-05T08:48:57.488Z,98443.77
2023-05-05T08:51:34.807Z,98430.44
2023-05-05T08:54:11.780Z,98435.64
2023-05-05T08:56:45.585Z,98438.17
2023-05-05T08:59:20.195Z,98444.42
2023-05-05T09:01:57.684Z,98458.64
2023-05-05T09:04:30.001Z,98457.55
2023-05-05T09:07:02.706Z,98472.52
2023-05-05T09:09:35.044Z,98479.13
2023-05-05T09:12:08.129Z,98469.77
2023-05-05T09:14:40.335Z,98482.11
2023-05-05T09:17:26.477Z,98497.95
2023-05-05T09:20:10.753Z,98503.98
2023-05-05T09:22:44.616Z,98513.73
2023-05-05T09:25:18.338Z,98511.52
2023-05-05T09:27:51.700Z,98514.31
2023-05-05T09:30:28.081Z,98518.73
2023-05-05T09:33:02.342Z,98521.98
2023-05-05T09:35:51.711Z,98513.48
2023-05-05T09:38:25.760Z,98512.29
2023-05-05T09:40:58.915Z,98511.56
2023-05-05T09:43:31.672Z,98516.45
2023-05-05T09:46:10.548Z,98519.94
2023-05-05T09:48:42.630Z,98516.13
2023-05-05T09:51:14.772Z,98522.73
2023-05-05T09:53:46.986Z,98516.11
2023-05-05T09:56:20.850Z,98496.55
2023-05-05T09:59:09.390Z,98501.09
2023-05-05T10:01:43.632Z,98483.86
2023-05-05T10:04:28.493Z,98493.41
2023-05-05T10:07:01.441Z,98501.73
2023-05-05T10:09:33.734Z,98512.57
2023-05-05T10:12:06.882Z,98507.13
2023-05-05T10:14:39.569Z,98510.10
2023-05-05T10:17:13.464Z,98498.05
2023-05-05T10:19:46.642Z,98502.00
2023-05-05T10:22:23.525Z,98512.54
2023-05-05T10:25:03.690Z,98510.54
2023-05-05T10:27:43.880Z,98513.13
2023-05-05T10:30:23.827Z,98501.17
2023-05-05T10:33:14.176Z,98499.23
2023-05-05T10:36:02.196Z,98506.58
2023-05-05T10:38:34.909Z,98507.08
2023-05-05T10:41:08.013Z,98505.52
2023-05-05T10:43:41.801Z,98502.64
2023-05-05T10:46:16.718Z,98511.98
2023-05-05T10:48:57.049Z,98511.63
2023-05-05T10:51:41.046Z,98513.11
2023-05-05T10:54:29.576Z,98505.48
2023-05-05T10:57:05.046Z,98493.11
2023-05-05T10:59:44.148Z,98492.33
2023-05-05T11:02:27.307Z,98505.30
2023-05-05T11:05:18.377Z,98516.20
2023-05-05T11:08:16.408Z,98518.54
2023-05-05T11:10:51.293Z,98516.92
2023-05-05T11:13:23.937Z,98514.77
2023-05-05T11:15:58.268Z,98506.77
2023-05-05T11:18:36.048Z,98512.27
2023-05-05T11:21:19.494Z,98509.75
2023-05-05T11:23:53.233Z,98500.10
2023-05-05T11:26:52.556Z,98501.90
2023-05-05T11:29:25.865Z,98506.56
2023-05-05T11:32:14.382Z,98512.90
2023-05-05T11:34:53.611Z,98494.77
2023-05-05T11:37:28.495Z,98485.88
2023-05-05T11:40:11.900Z,98492.95
2023-05-05T11:42:44.346Z,98499.88
2023-05-05T11:45:30.158Z,98490.02
2023-05-05T11:48:28.105Z,98485.99
2023-05-05T11:51:05.487Z,98491.91
2023-05-05T11:53:38.406Z,98493.20
2023-05-05T11:56:12.349Z,98498.51
2023-05-05T11:58:44.603Z,98505.34
2023-05-05T12:01:17.378Z,98498.23
2023-05-05T12:03:50.178Z,98498.48
2023-05-05T12:06:22.711Z,98495.40
2023-05-05T12:08:55.030Z,98486.91
2023-05-05T12:11:27.963Z,98477.77
2023-05-05T12:14:13.222Z,98471.23
2023-05-05T12:16:56.991Z,98470.16
2023-05-05T12:19:33.106Z,98470.84
2023-05-05T12:22:06.232Z,98477.14
2023-05-05T12:24:38.907Z,98482.52
2023-05-05T12:27:14.525Z,98472.04
2023-05-05T12:29:46.747Z,98477.19
2023-05-05T12:32:25.871Z,98465.68
2023-05-05T12:34:58.512Z,98468.47
2023-05-05T12:37:30.833Z,98484.55
2023-05-05T12:40:03.975Z,98485.37
2023-05-05T12:42:41.129Z,98485.69
2023-05-05T12:45:19.299Z,98496.81
2023-05-05T12:47:51.609Z,98487.61
2023-05-05T12:50:34.314Z,98483.06
2023-05-05T12:53:06.848Z,98480.62
2023-05-05T12:55:56.872Z,98481.34
2023-05-05T12:58:30.614Z,98476.11
2023-05-05T13:01:15.018Z,98477.08
2023-05-05T13:03:49.184Z,98471.37
2023-05-05T13:06:26.191Z,98474.44
2023-05-05T13:08:58.397Z,98473.71
2023-05-05T13:11:30.659Z,98473.70
2023-05-05T13:14:02.746Z,98467.59
2023-05-05T13:16:34.805Z,98460.25
2023-05-05T13:19:06.973Z,98451.80
2023-05-05T13:21:39.467Z,98451.89
2023-05-05T13:24:21.275Z,98448.79
2023-05-05T13:26:58.026Z,98450.13
2023-05-05T13:29:31.668Z,98448.60
2023-05-05T13:32:04.255Z,98448.98
2023-05-05T13:34:54.197Z,98446.02
2023-05-05T13:37:26.389Z,98453.22
2023-05-05T13:40:00.307Z,98452.43
2023-05-05T13:42:32.364Z,98443.80
2023-05-05T13:45:04.660Z,98437.35
2023-05-05T13:47:36.730Z,98443.81
2023-05-05T13:50:10.323Z,98442.92
2023-05-05T13:52:42.966Z,98439.44
2023-05-05T13:55:17.533Z,98436.66
2023-05-05T13:57:49.637Z,98430.72
2023-05-05T14:00:23.374Z,98428.84
2023-05-05T14:02:55.647Z,98408.46
2023-05-05T14:05:28.103Z,98409.79
2023-05-05T14:08:00.702Z,98417.48
2023-05-05T14:10:32.851Z,98421.94
2023-05-05T14:13:04.969Z,98423.33
2023-05-05T14:15:36.984Z,98421.20
2023-05-05T14:18:09.712Z,98419.25
2023-05-05T14:20:41.821Z,98423.86
2023-05-05T14:23:13.794Z,98419.55
2023-05-05T14:25:45.850Z,98419.55
2023-05-05T14:28:18.367Z,98415.64
2023-05-05T14:30:50.487Z,98413.91
2023-05-05T14:33:23.367Z,98419.03
2023-05-05T14:35:56.596Z,98421.16
2023-05-05T14:38:31.485Z,98420.20
2023-05-05T14:41:04.776Z,98422.53
2023-05-05T14:43:36.918Z,98418.81
2023-05-05T14:52:18.395Z,98420.16
2023-05-05T14:54:50.402Z,98416.13
2023-05-05T14:57:22.524Z,98414.60
2023-05-05T14:59:54.678Z,98421.32
2023-05-05T15:02:26.889Z,98422.44
2023-05-05T15:04:58.968Z,98419.15
2023-05-05T15:07:31.023Z,98425.83
2023-05-05T15:10:05.303Z,98422.17
2023-05-05T15:12:37.614Z,98415.64
2023-05-05T15:15:11.383Z,98417.14
2023-05-05T15:17:44.256Z,98411.44
2023-05-05T15:20:16.562Z,98415.67
2023-05-05T15:22:55.262Z,98412.17
2023-05-05T15:25:27.865Z,98410.61
2023-05-05T15:28:01.051Z,98410.86
2023-05-05T15:30:33.510Z,98412.35
2023-05-05T15:33:05.715Z,98412.59
2023-05-05T15:35:37.789Z,98413.63
2023-05-05T15:38:10.172Z,98411.34
2023-05-05T15:40:43.082Z,98411.36
2023-05-05T15:43:15.491Z,98419.15
2023-05-05T15:45:47.954Z,98418.59
2023-05-05T15:48:19.896Z,98414.81
2023-05-05T15:50:51.977Z,98420.02
2023-05-05T15:53:24.163Z,98425.64
2023-05-05T15:55:56.666Z,98421.64
2023-05-05T15:58:30.547Z,98414.94
2023-05-05T16:01:03.618Z,98411.38
2023-05-05T16:03:36.624Z,98408.66
2023-05-05T16:06:10.165Z,98410.26
2023-05-05T16:08:44.670Z,98409.64
2023-05-05T16:11:16.944Z,98413.58
2023-05-05T16:13:49.012Z,98414.36
2023-05-05T16:16:22.300Z,98418.38
2023-05-05T16:18:54.411Z,98421.11
2023-05-05T16:21:27.669Z,98417.73
2023-05-05T16:24:00.056Z,98418.23
2023-05-05T16:26:35.955Z,98420.45
2023-05-05T16:29:08.141Z,98422.05
2023-05-05T16:31:40.765Z,98425.41
2023-05-05T16:34:13.135Z,98425.41
2023-05-05T16:36:45.225Z,98422.73
2023-05-05T16:39:19.992Z,98425.77
2023-05-05T16:41:52.074Z,98426.45
2023-05-05T16:44:24.408Z,98420.21
2023-05-05T16:46:56.442Z,98418.57
2023-05-05T16:49:28.701Z,98421.57
2023-05-05T16:52:01.517Z,98423.98
2023-05-05T16:54:34.403Z,98431.89
2023-05-05T16:57:07.101Z,98432.53
2023-05-05T16:59:39.138Z,98439.52
2023-05-05T17:02:11.612Z,98437.58
2023-05-05T17:04:43.876Z,98445.19
2023-05-05T17:07:15.935Z,98449.30
2023-05-05T17:09:48.201Z,98454.44
2023-05-05T17:12:20.269Z,98457.71
2023-05-05T17:14:52.506Z,98464.50
2023-05-05T17:17:24.577Z,98467.88
2023-05-05T17:19:56.889Z,98470.96
2023-05-05T17:22:28.980Z,98473.77
2023-05-05T17:25:01.000Z,98478.34
2023-05-05T17:27:33.131Z,98478.11
2023-05-05T17:30:05.586Z,98479.54
2023-05-05T17:32:37.725Z,98483.60
2023-05-05T17:35:11.198Z,98487.48
2023-05-05T17:37:43.809Z,98489.84
2023-05-05T17:40:17.356Z,98495.41
2023-05-05T17:42:49.383Z,98500.17
2023-05-05T17:45:21.510Z,98500.45
2023-05-05T17:47:54.112Z,98501.55
2023-05-05T17:50:26.151Z,98507.50
2023-05-05T17:52:58.543Z,98504.61
2023-05-05T17:55:30.644Z,98513.41
2023-05-05T17:58:02.619Z,98518.17
2023-05-05T18:00:34.617Z,98526.84
2023-05-05T18:03:07.162Z,98523.48
2023-05-05T18:05:40.319Z,98527.90
2023-05-05T18:08:12.534Z,98535.19
2023-05-05T18:10:44.733Z,98541.55
2023-05-05T18:13:16.977Z,98544.34
2023-05-05T18:15:49.044Z,98549.38
2023-05-05T18:18:21.151Z,98547.98
2023-05-05T18:20:53.289Z,98549.91
2023-05-05T18:23:25.539Z,98563.37
2023-05-05T18:25:57.629Z,98569.85
2023-05-05T18:28:29.692Z,98584.41
2023-05-05T18:31:01.842Z,98587.55
2023-05-05T18:33:33.961Z,98591.48
2023-05-05T18:36:11.623Z,98598.10
2023-05-05T18:38:43.607Z,98607.49
2023-05-05T18:41:16.299Z,98612.08
2023-05-05T18:43:48.735Z,98617.83
2023-05-05T18:46:22.588Z,98625.20
2023-05-05T18:48:54.672Z,98632.17
2023-05-05T18:51:28.444Z,98643.20
2023-05-05T18:54:03.064Z,98649.73
2023-05-05T18:56:35.065Z,98654.61
2023-05-05T18:59:09.117Z,98662.97
2023-05-05T19:01:43.032Z,98666.86
2023-05-05T19:04:30.089Z,98667.23
2023-05-05T19:07:03.661Z,98662.40
2023-05-05T19:09:36.087Z,98665.58
2023-05-05T19:12:08.862Z,98673.58
2023-05-05T19:14:41.250Z,98678.77
2023-05-05T19:17:13.351Z,98682.09
2023-05-05T19:19:45.465Z,98686.19
2023-05-05T19:22:18.727Z,98687.51
2023-05-05T19:24:50.811Z,98691.20
2023-05-05T19:27:22.952Z,98697.81
2023-05-05T19:29:55.030Z,98701.45
2023-05-05T19:32:27.252Z,98702.19
2023-05-05T19:34:59.690Z,98702.26
2023-05-05T19:37:31.794Z,98702.83
2023-05-05T19:40:06.724Z,98709.22
2023-05-05T19:42:39.037Z,98719.86
2023-05-05T19:45:11.870Z,98715.09
2023-05-05T19:47:44.482Z,98715.66
2023-05-05T19:50:16.645Z,98724.77
2023-05-05T19:52:48.822Z,98726.34
2023-05-05T19:55:22.924Z,98726.81
2023-05-05T19:57:55.098Z,98724.12
2023-05-05T20:00:27.406Z,98729.31
2023-05-05T20:02:59.721Z,98732.92
2023-05-05T20:05:31.993Z,98738.53
2023-05-05T20:08:04.221Z,98744.59
2023-05-05T20:10:36.652Z,98746.36
2023-05-05T20:13:08.944Z,98750.06
2023-05-05T20:15:41.319Z,98742.46
2023-05-05T20:18:13.576Z,98739.73
2023-05-05T20:20:45.754Z,98739.45
2023-05-05T20:23:17.905Z,98733.50
2023-05-05T20:25:50.417Z,98731.96
2023-05-05T20:28:22.816Z,98733.98
2023-05-05T20:30:54.902Z,98734.36
2023-05-05T20:33:27.208Z,98729.04
2023-05-05T20:35:59.423Z,98726.47
2023-05-05T20:38:34.954Z,98734.55
2023-05-05T20:41:07.222Z,98728.66
2023-05-05T20:43:40.343Z,98733.02
2023-05-05T20:46:13.890Z,98731.80
2023-05-05T20:48:46.365Z,98737.64
2023-05-05T20:51:18.481Z,98738.39
2023-05-05T20:53:50.932Z,98739.63
2023-05-05T20:56:23.029Z,98738.73
2023-05-05T20:58:56.775Z,98738.50
2023-05-05T21:01:29.473Z,98740.67
2023-05-05T21:04:01.732Z,98739.35
2023-05-05T21:06:35.105Z,98740.36
2023-05-05T21:09:07.809Z,98733.27
2023-05-05T21:11:40.104Z,98732.91
2023-05-05T21:14:12.287Z,98733.06
2023-05-05T21:16:44.591Z,98731.95
2023-05-05T21:19:16.708Z,98729.89
2023-05-05T21:21:49.227Z,98731.31
2023-05-05T21:24:21.504Z,98726.40
2023-05-05T21:26:53.583Z,98726.83
2023-05-05T21:29:26.004Z,98726.06
2023-05-05T21:31:58.246Z,98724.33
2023-05-05T21:34:30.854Z,98722.70
2023-05-05T21:37:03.246Z,98722.79
2023-05-05T21:39:35.567Z,98721.77
2023-05-05T21:42:08.207Z,98720.45
2023-05-05T21:44:40.322Z,98712.64
2023-05-05T21:47:12.502Z,98711.25
2023-05-05T21:49:44.717Z,98704.73
2023-05-05T21:52:16.918Z,98704.59
2023-05-05T21:54:49.231Z,98702.33
2023-05-05T21:57:21.484Z,98704.30
2023-05-05T21:59:53.610Z,98698.43
2023-05-05T22:02:25.850Z,98697.65
2023-05-05T22:04:58.122Z,98695.70
2023-05-05T22:07:31.717Z,98693.77
2023-05-05T22:10:05.458Z,98695.84
2023-05-05T22:12:37.734Z,98695.21
2023-05-05T22:15:12.025Z,98690.79
2023-05-05T22:17:44.140Z,98689.58
2023-05-05T22:20:16.789Z,98689.25
2023-05-05T22:22:48.873Z,98689.05
2023-05-05T22:25:21.071Z,98683.87
2023-05-05T22:27:53.193Z,98685.89
2023-05-05T22:30:25.319Z,98683.84
2023-05-05T22:32:57.646Z,98688.77
2023-05-05T22:35:29.966Z,98689.30
2023-05-05T22:38:02.658Z,98690.23
2023-05-05T22:40:34.889Z,98690.73
2023-05-05T22:43:07.155Z,98684.95
2023-05-05T22:45:39.297Z,98678.00
2023-05-05T22:48:14.091Z,98668.70
2023-05-05T22:50:46.519Z,98670.36
2023-05-05T22:53:21.071Z,98663.14
2023-05-05T22:55:53.166Z,98661.84
2023-05-05T22:58:25.902Z,98662.23
2023-05-05T23:00:58.045Z,98659.02
2023-05-05T23:03:30.215Z,98654.07
2023-05-05T23:06:05.195Z,98651.92
2023-05-05T23:08:37.399Z,98648.27
2023-05-05T23:11:09.763Z,98649.41
2023-05-05T23:13:41.932Z,98650.20
2023-05-05T23:16:14.089Z,98653.05
2023-05-05T23:18:49.355Z,98656.73
2023-05-05T23:21:21.542Z,98657.21
2023-05-05T23:23:55.051Z,98657.98
2023-05-05T23:26:27.267Z,98659.98
2023-05-05T23:28:59.625Z,98665.52
2023-05-05T23:31:32.060Z,98666.73
2023-05-05T23:34:04.357Z,98664.29
2023-05-05T23:36:36.479Z,98659.19
2023-05-05T23:39:08.999Z,98653.84
2023-05-05T23:41:41.318Z,98647.77
2023-05-05T23:44:13.414Z,98643.61
2023-05-05T23:46:47.707Z,98639.64
2023-05-05T23:49:20.218Z,98645.66
2023-05-05T23:51:52.437Z,98642.23
2023-05-05T23:54:27.662Z,98646.91
2023-05-05T23:57:00.318Z,98653.58
2023-05-05T23:59:32.552Z,98642.54
